Time;durP1;ratioP1;P1;durP2;ratioP2;P2;SDS_P1;SDS_P2;PMS_P1;PMS_P2;Temp;Humidity;BMP_temperature;BMP_pressure;BME280_temperature;BME280_humidity;BME280_pressure;Samples;Min_cycle;Max_cycle;Signal;HPM_P1;HPM_P2
2023/05/10 00:00:47;;;;;;;0.60;0.60;;;15.70;99.90;;;15.97;nan;99965.81;4951518;28;20617;-70
2023/05/10 00:03:14;;;;;;;0.57;0.57;;;15.70;99.90;;;15.97;nan;99963.16;4951416;28;20625;-68
2023/05/10 00:05:41;;;;;;;0.43;0.43;;;15.70;99.90;;;15.96;nan;99967.59;4958077;28;20628;-69
2023/05/10 00:08:08;;;;;;;0.60;0.60;;;15.70;99.90;;;15.95;nan;99965.13;4944808;28;20731;-69
2023/05/10 00:10:37;;;;;;;0.50;0.50;;;15.70;99.90;;;15.94;nan;99972.19;4969129;28;20629;-69
2023/05/10 00:13:04;;;;;;;0.60;0.60;;;15.70;99.90;;;15.93;nan;99969.75;4957713;28;20668;-70
2023/05/10 00:15:32;;;;;;;0.47;0.47;;;15.70;99.90;;;15.90;nan;99972.66;4963545;28;20632;-69
2023/05/10 00:17:59;;;;;;;0.50;0.50;;;15.60;99.90;;;15.89;nan;99974.47;4971120;28;20659;-68
2023/05/10 00:20:26;;;;;;;0.40;0.40;;;15.60;99.90;;;15.84;nan;99975.94;4972237;28;21048;-70
2023/05/10 00:22:53;;;;;;;0.53;0.53;;;15.60;99.90;;;15.78;nan;99974.75;4959557;28;20639;-68
2023/05/10 00:25:21;;;;;;;0.43;0.43;;;15.50;99.90;;;15.76;nan;99975.94;4953776;28;21040;-70
2023/05/10 00:27:49;;;;;;;0.50;0.50;;;15.50;99.90;;;15.74;nan;99977.91;4953347;29;20668;-70
2023/05/10 00:30:16;;;;;;;0.70;0.70;;;15.50;99.90;;;15.76;nan;99973.28;4955076;28;21537;-68
2023/05/10 00:32:43;;;;;;;0.50;0.47;;;15.50;99.90;;;15.75;nan;99974.25;4955191;28;20663;-68
2023/05/10 00:35:10;;;;;;;0.70;0.70;;;15.50;99.90;;;15.74;nan;99970.00;4949681;28;20663;-69
2023/05/10 00:37:37;;;;;;;0.50;0.47;;;15.50;99.90;;;15.72;nan;99975.41;4954200;28;20663;-68
2023/05/10 00:40:06;;;;;;;0.60;0.60;;;15.50;99.90;;;15.71;nan;99967.69;4954989;28;21188;-68
2023/05/10 00:42:33;;;;;;;0.60;0.60;;;15.50;99.90;;;15.69;nan;99973.09;4949928;28;20640;-68
2023/05/10 00:45:01;;;;;;;0.60;0.50;;;15.50;99.90;;;15.66;nan;99969.94;4955168;28;20643;-70
2023/05/10 00:47:28;;;;;;;0.60;0.60;;;15.40;99.90;;;15.61;nan;99969.63;4948045;28;20682;-69
2023/05/10 00:49:56;;;;;;;0.50;0.50;;;15.40;99.90;;;15.57;nan;99976.97;4952446;28;20643;-68
2023/05/10 00:52:23;;;;;;;0.60;0.60;;;15.30;99.90;;;15.51;nan;99969.72;4956764;28;20686;-71
2023/05/10 00:54:52;;;;;;;0.50;0.50;;;15.30;99.90;;;15.47;nan;99974.50;4945073;28;20637;-68
2023/05/10 00:57:19;;;;;;;0.67;0.67;;;15.20;99.90;;;15.43;nan;99969.69;4946831;28;20679;-68
2023/05/10 00:59:46;;;;;;;0.80;0.80;;;15.20;99.90;;;15.44;nan;99976.59;4946765;28;20640;-70
2023/05/10 01:02:14;;;;;;;0.53;0.50;;;15.20;99.90;;;15.43;nan;99975.78;4946540;29;20705;-67
2023/05/10 01:04:41;;;;;;;0.57;0.57;;;15.20;99.90;;;15.38;nan;99982.44;4950862;28;20636;-69
2023/05/10 01:07:08;;;;;;;0.60;0.57;;;15.20;99.90;;;15.37;nan;99973.75;4948679;29;21545;-67
2023/05/10 01:09:35;;;;;;;0.50;0.50;;;15.10;99.90;;;15.33;nan;99968.97;4968522;28;21284;-69
2023/05/10 01:12:06;;;;;;;0.60;0.60;;;15.10;99.90;;;15.33;nan;99969.75;4952508;29;20667;-68
2023/05/10 01:14:35;;;;;;;0.60;0.60;;;15.10;99.90;;;15.35;nan;99973.06;4953169;28;21290;-70
2023/05/10 01:17:05;;;;;;;0.50;0.50;;;15.10;99.90;;;15.31;nan;99982.25;4948301;29;21175;-66
2023/05/10 01:19:34;;;;;;;0.60;0.60;;;15.10;99.90;;;15.27;nan;99986.16;4952375;28;20605;-68
2023/05/10 01:22:24;;;;;;;0.63;0.63;;;15.10;99.90;;;15.29;nan;99983.41;4954059;28;21055;-68
2023/05/10 01:25:19;;;;;;;0.60;0.60;;;15.10;99.90;;;15.33;nan;99975.03;4952897;29;20624;-69
2023/05/10 01:28:30;;;;;;;0.50;0.50;;;15.10;99.90;;;15.33;nan;99987.38;4953803;28;20660;-69
2023/05/10 01:31:30;;;;;;;0.50;0.50;;;15.10;99.90;;;15.27;nan;99986.16;4935466;29;20628;-70
2023/05/10 01:34:09;;;;;;;0.50;0.50;;;15.10;99.90;;;15.29;nan;99984.19;4938251;29;21152;-68
2023/05/10 01:36:55;;;;;;;0.50;0.50;;;15.00;99.90;;;15.28;nan;99987.81;4949593;29;20607;-68
2023/05/10 01:39:44;;;;;;;0.80;0.80;;;15.00;99.90;;;15.29;nan;99986.03;4951573;29;20624;-69
2023/05/10 01:42:17;;;;;;;0.60;0.60;;;15.00;99.90;;;15.31;nan;99998.00;4952328;29;20643;-68
2023/05/10 01:45:25;;;;;;;0.70;0.70;;;15.00;99.90;;;15.33;nan;99997.88;4952652;28;20640;-69
2023/05/10 01:48:13;;;;;;;0.70;0.70;;;15.10;99.90;;;15.37;nan;100002.66;4947764;28;20675;-69
2023/05/10 01:50:43;;;;;;;1.03;0.60;;;15.10;99.90;;;15.36;nan;99993.13;4950273;29;21139;-68
2023/05/10 01:53:12;;;;;;;0.70;0.70;;;15.10;99.90;;;15.37;nan;99997.41;4949118;29;20658;-67
2023/05/10 01:55:47;;;;;;;1.70;0.60;;;15.10;99.90;;;15.36;nan;100000.19;4954422;28;20635;-67
2023/05/10 01:58:21;;;;;;;0.60;0.60;;;15.10;99.90;;;15.40;nan;100001.50;4966586;28;20664;-69
2023/05/10 02:00:50;;;;;;;0.60;0.57;;;15.20;99.90;;;15.40;nan;100004.97;4949434;29;20616;-68
2023/05/10 02:03:22;;;;;;;0.73;0.73;;;15.10;99.90;;;15.41;nan;99998.75;4951046;29;20632;-68
2023/05/10 02:05:50;;;;;;;0.70;0.70;;;15.20;99.90;;;15.42;nan;100000.38;4956099;28;20643;-68
2023/05/10 02:08:18;;;;;;;0.60;0.60;;;15.20;99.90;;;15.44;nan;99992.34;4950010;28;20714;-68
2023/05/10 02:10:47;;;;;;;0.63;0.63;;;15.20;99.90;;;15.45;nan;99997.47;4964697;28;20607;-69
2023/05/10 02:13:16;;;;;;;0.60;0.60;;;15.20;99.90;;;15.44;nan;99990.56;4970292;28;20679;-69
2023/05/10 02:15:43;;;;;;;0.70;0.70;;;15.20;99.90;;;15.44;nan;100001.06;4973016;28;21187;-68
2023/05/10 02:18:11;;;;;;;0.50;0.50;;;15.20;99.90;;;15.44;nan;100001.06;4959705;28;20719;-68
2023/05/10 02:20:39;;;;;;;0.70;0.70;;;15.20;99.90;;;15.40;nan;100007.59;4967684;28;21120;-68
2023/05/10 02:23:08;;;;;;;0.53;0.53;;;15.20;99.90;;;15.36;nan;100008.88;4966082;28;20651;-68
2023/05/10 02:25:38;;;;;;;0.70;0.70;;;15.20;99.90;;;15.36;nan;100006.25;4968310;28;20639;-69
2023/05/10 02:28:07;;;;;;;0.60;0.60;;;15.20;99.90;;;15.34;nan;99996.88;4963236;28;21243;-68
2023/05/10 02:30:34;;;;;;;0.80;0.80;;;15.10;99.90;;;15.31;nan;99997.22;4953035;28;21183;-69
2023/05/10 02:33:05;;;;;;;0.50;0.50;;;15.10;99.90;;;15.31;nan;100002.47;4952170;28;20664;-68
2023/05/10 02:35:33;;;;;;;0.50;0.50;;;15.10;99.90;;;15.30;nan;100000.81;4951863;29;20664;-68
2023/05/10 02:38:01;;;;;;;0.80;0.80;;;15.10;99.90;;;15.30;nan;100000.81;4949290;29;20668;-68
2023/05/10 02:40:29;;;;;;;0.50;0.50;;;15.10;99.90;;;15.29;nan;100010.47;4967985;28;20644;-68
2023/05/10 02:42:58;;;;;;;0.60;0.60;;;15.10;99.90;;;15.28;nan;100016.72;4952394;28;20628;-68
2023/05/10 02:45:30;;;;;;;0.70;0.70;;;15.10;99.90;;;15.24;nan;100012.78;4951545;28;20648;-69
2023/05/10 02:47:58;;;;;;;0.60;0.60;;;15.00;99.90;;;15.26;nan;100018.69;4949249;28;21111;-67
2023/05/10 02:50:28;;;;;;;0.60;0.60;;;15.00;99.90;;;15.23;nan;100013.75;4950207;29;21100;-68
2023/05/10 02:53:01;;;;;;;0.70;0.70;;;15.00;99.90;;;15.24;nan;100018.03;4939243;29;20663;-68
2023/05/10 02:55:36;;;;;;;0.77;0.77;;;15.00;99.90;;;15.20;nan;100006.19;4949046;28;21095;-68
2023/05/10 02:58:04;;;;;;;0.60;0.60;;;15.00;99.90;;;15.21;nan;100018.31;4965861;28;20662;-68
2023/05/10 03:00:32;;;;;;;0.80;0.67;;;15.00;99.90;;;15.16;nan;100014.53;4951155;28;20640;-68
2023/05/10 03:03:00;;;;;;;0.80;0.80;;;14.90;99.90;;;15.09;nan;100034.50;4967407;28;20631;-68
2023/05/10 03:05:27;;;;;;;0.60;0.60;;;14.90;99.90;;;15.02;nan;100026.41;4955433;28;20648;-68
2023/05/10 03:07:55;;;;;;;0.70;0.70;;;14.80;99.90;;;14.95;nan;100035.84;4946657;28;20694;-69
2023/05/10 03:10:29;;;;;;;0.77;0.77;;;14.70;99.90;;;14.91;nan;100036.31;4946567;29;21209;-68
2023/05/10 03:13:18;;;;;;;0.67;0.67;;;14.70;99.90;;;14.93;nan;100037.00;4951356;28;20726;-69
2023/05/10 03:16:08;;;;;;;0.70;0.70;;;14.70;99.90;;;14.88;nan;100042.72;4950169;29;20648;-68
2023/05/10 03:19:03;;;;;;;0.50;0.50;;;14.70;99.90;;;14.77;nan;100035.91;4949684;29;21018;-69
2023/05/10 03:21:32;;;;;;;0.90;0.90;;;14.50;99.90;;;14.80;nan;100042.63;4956954;28;20643;-68
2023/05/10 03:24:08;;;;;;;1.20;1.10;;;14.60;99.90;;;14.76;nan;100049.16;4948826;29;20616;-69
2023/05/10 03:26:36;;;;;;;0.90;0.90;;;14.50;99.90;;;14.76;nan;100043.91;4950446;29;20743;-68
2023/05/10 03:29:06;;;;;;;1.00;1.00;;;14.50;99.90;;;14.76;nan;100044.75;4950333;29;21220;-69
2023/05/10 03:31:33;;;;;;;0.90;0.90;;;14.50;99.90;;;14.73;nan;100049.47;4950176;29;20652;-69
2023/05/10 03:34:01;;;;;;;0.80;0.80;;;14.50;99.90;;;14.72;nan;100043.41;4966682;28;20707;-66
2023/05/10 03:36:28;;;;;;;0.83;0.83;;;14.50;99.90;;;14.72;nan;100047.81;4951436;28;20739;-69
2023/05/10 03:38:55;;;;;;;0.97;0.97;;;14.50;99.90;;;14.72;nan;100037.31;4937580;29;21261;-69
2023/05/10 03:41:22;;;;;;;0.90;0.90;;;14.50;99.90;;;14.65;nan;100039.72;4952401;28;20619;-69
2023/05/10 03:43:48;;;;;;;0.80;0.80;;;14.40;99.90;;;14.67;nan;100044.84;4953920;28;20628;-70
2023/05/10 03:46:18;;;;;;;2.10;0.93;;;14.40;99.90;;;14.68;nan;100041.22;4954557;28;21215;-69
2023/05/10 03:48:45;;;;;;;1.20;1.20;;;14.40;99.90;;;14.63;nan;100038.19;4953898;28;20679;-70
2023/05/10 03:51:12;;;;;;;0.90;0.90;;;14.40;99.90;;;14.61;nan;100032.28;4950603;28;20627;-70
2023/05/10 03:53:39;;;;;;;1.10;1.00;;;14.40;99.90;;;14.60;nan;100033.28;4948114;29;20686;-70
2023/05/10 03:56:06;;;;;;;1.23;1.13;;;14.40;99.90;;;14.58;nan;100038.69;4955385;28;20607;-68
2023/05/10 03:58:34;;;;;;;0.90;0.90;;;14.30;99.90;;;14.59;nan;100035.06;4954673;28;21247;-68
2023/05/10 04:01:01;;;;;;;0.80;0.80;;;14.40;99.90;;;14.60;nan;100035.91;4954374;29;20662;-70
2023/05/10 04:03:28;;;;;;;0.60;0.50;;;14.40;99.90;;;14.56;nan;100032.75;4954330;28;20678;-68
2023/05/10 04:06:02;;;;;;;0.97;0.83;;;14.40;99.90;;;14.53;nan;100040.09;4954184;28;20647;-68
2023/05/10 04:08:30;;;;;;;0.80;0.80;;;14.30;99.90;;;14.48;nan;100047.59;4951691;28;20682;-69
2023/05/10 04:11:14;;;;;;;0.60;0.60;;;14.30;99.90;;;14.45;nan;100050.50;4953443;28;21304;-67
2023/05/10 04:13:42;;;;;;;1.17;1.17;;;14.20;99.90;;;14.45;nan;100055.75;4938578;29;20655;-68
2023/05/10 04:16:12;;;;;;;1.20;1.10;;;14.20;99.90;;;14.45;nan;100055.75;4955262;28;20694;-67
2023/05/10 04:18:39;;;;;;;1.00;1.00;;;14.20;99.90;;;14.45;nan;100061.00;4965330;28;20743;-64
2023/05/10 04:21:13;;;;;;;1.00;0.90;;;14.20;99.90;;;14.44;nan;100070.69;4962697;28;20635;-67
2023/05/10 04:23:40;;;;;;;1.83;1.20;;;14.20;99.90;;;14.44;nan;100069.84;4973342;28;20649;-68
2023/05/10 04:26:07;;;;;;;0.87;0.87;;;14.20;99.90;;;14.47;nan;100074.81;4954235;29;20632;-68
2023/05/10 04:28:35;;;;;;;1.13;1.00;;;14.20;99.90;;;14.49;nan;100071.06;4953548;29;20684;-67
2023/05/10 04:31:07;;;;;;;0.70;0.70;;;14.20;99.90;;;14.51;nan;100068.28;4955203;28;20620;-68
2023/05/10 04:33:35;;;;;;;1.07;1.00;;;14.30;99.90;;;14.52;nan;100067.34;4953327;28;20676;-68
2023/05/10 04:36:03;;;;;;;1.17;1.17;;;14.30;99.90;;;14.51;nan;100066.50;4944547;29;20620;-69
2023/05/10 04:38:30;;;;;;;1.27;1.27;;;14.30;99.90;;;14.51;nan;100070.91;4951826;28;20655;-68
2023/05/10 04:41:06;;;;;;;1.20;1.13;;;14.30;99.90;;;14.49;nan;100068.44;4955154;28;20632;-68
2023/05/10 04:43:33;;;;;;;1.00;1.00;;;14.30;99.90;;;14.46;nan;100068.72;4954514;28;20635;-68
2023/05/10 04:46:00;;;;;;;0.80;0.80;;;14.20;99.90;;;14.49;nan;100078.13;4952177;29;21227;-68
2023/05/10 04:48:27;;;;;;;1.17;1.07;;;14.30;99.90;;;14.52;nan;100080.44;4951459;28;20663;-68
2023/05/10 04:50:55;;;;;;;1.43;1.33;;;14.30;99.90;;;14.55;nan;100077.50;4953286;28;21240;-67
2023/05/10 04:53:22;;;;;;;1.30;1.20;;;14.30;99.90;;;14.60;nan;100084.00;4952443;28;20680;-68
2023/05/10 04:55:49;;;;;;;1.13;1.13;;;14.30;99.90;;;14.65;nan;100088.78;4939259;29;20632;-68
2023/05/10 04:58:16;;;;;;;1.20;1.17;;;14.40;99.90;;;14.72;nan;100084.56;4952595;28;20672;-68
2023/05/10 05:00:44;;;;;;;1.40;1.30;;;14.50;99.90;;;14.77;nan;100093.69;4950057;29;20611;-68
2023/05/10 05:03:11;;;;;;;1.30;1.30;;;14.60;99.90;;;14.80;nan;100087.28;4954011;28;20670;-68
2023/05/10 05:05:38;;;;;;;1.47;1.37;;;14.60;99.90;;;14.85;nan;100100.78;4951284;28;20675;-68
2023/05/10 05:08:05;;;;;;;1.27;1.17;;;14.60;99.90;;;14.89;nan;100096.88;4949287;29;20675;-68
2023/05/10 05:10:32;;;;;;;1.70;1.43;;;14.60;99.90;;;14.91;nan;100092.31;4951287;28;20662;-66
2023/05/10 05:12:59;;;;;;;1.53;1.43;;;14.70;99.90;;;14.97;nan;100096.94;4953154;28;20663;-69
2023/05/10 05:15:26;;;;;;;1.97;1.87;;;14.70;99.90;;;15.04;nan;100099.81;4952424;28;20651;-69
2023/05/10 05:17:53;;;;;;;1.00;1.00;;;14.80;99.90;;;15.11;nan;100103.47;4956939;28;21214;-69
2023/05/10 05:20:21;;;;;;;1.93;1.80;;;14.90;99.90;;;15.17;nan;100101.06;4950496;29;21246;-68
2023/05/10 05:22:48;;;;;;;1.17;1.17;;;14.90;99.90;;;15.22;nan;100109.34;4950367;29;20761;-68
2023/05/10 05:25:15;;;;;;;1.70;1.60;;;15.00;99.90;;;15.31;nan;100115.47;4954010;28;20600;-69
2023/05/10 05:27:42;;;;;;;2.33;1.77;;;15.10;99.90;;;15.42;nan;100117.84;4952111;28;20663;-67
2023/05/10 05:30:10;;;;;;;1.50;1.13;;;15.10;99.90;;;15.49;nan;100117.13;4953296;29;20636;-69
2023/05/10 05:32:37;;;;;;;1.37;1.37;;;15.30;99.90;;;15.56;nan;100111.25;4954008;28;20690;-69
2023/05/10 05:35:04;;;;;;;1.70;1.60;;;15.30;99.90;;;15.50;nan;100113.50;4961732;28;20773;-69
2023/05/10 05:37:32;;;;;;;1.57;1.47;;;15.30;99.90;;;15.43;nan;100117.75;4954048;28;20644;-68
2023/05/10 05:40:01;;;;;;;1.70;1.47;;;15.20;99.90;;;15.43;nan;100111.66;4951710;28;20631;-68
2023/05/10 05:42:28;;;;;;;1.90;1.80;;;15.20;99.90;;;15.47;nan;100110.38;4952737;29;21148;-68
2023/05/10 05:44:55;;;;;;;2.40;2.00;;;15.20;99.90;;;15.51;nan;100104.66;4951558;28;20698;-68
2023/05/10 05:47:21;;;;;;;1.30;1.27;;;15.30;99.90;;;15.56;nan;100122.59;4952743;28;20644;-68
2023/05/10 05:49:49;;;;;;;1.80;1.70;;;15.30;99.90;;;15.60;nan;100121.31;4951992;28;20644;-68
2023/05/10 05:52:15;;;;;;;2.00;1.90;;;15.40;99.90;;;15.67;nan;100124.13;4948975;28;20632;-66
2023/05/10 05:54:43;;;;;;;1.37;1.27;;;15.40;99.90;;;15.71;nan;100121.06;4943890;29;20675;-68
2023/05/10 05:57:10;;;;;;;1.63;1.53;;;15.40;99.90;;;15.73;nan;100118.25;4944208;29;20706;-68
2023/05/10 05:59:41;;;;;;;2.30;1.90;;;15.50;99.90;;;15.73;nan;100113.81;4943933;28;20647;-67
2023/05/10 06:02:09;;;;;;;1.77;1.67;;;15.50;99.90;;;15.83;nan;100119.78;4947190;29;20722;-68
2023/05/10 06:04:36;;;;;;;1.60;1.50;;;15.60;99.90;;;15.93;nan;100125.75;4945576;29;20648;-68
2023/05/10 06:07:03;;;;;;;0.70;0.70;;;15.70;99.90;;;16.03;nan;100133.56;4945555;28;20631;-67
2023/05/10 06:09:30;;;;;;;1.27;1.27;;;15.80;99.90;;;16.11;nan;100136.22;4951257;28;20636;-68
2023/05/10 06:11:57;;;;;;;1.17;1.17;;;15.90;99.90;;;16.15;nan;100141.03;4943859;29;20623;-67
2023/05/10 06:14:25;;;;;;;1.13;1.13;;;15.90;99.90;;;16.22;nan;100146.47;4947265;29;20680;-68
2023/05/10 06:16:51;;;;;;;2.30;0.97;;;16.00;99.90;;;16.29;nan;100143.03;4944709;28;20629;-66
2023/05/10 06:19:19;;;;;;;1.07;1.07;;;16.00;99.90;;;16.35;nan;100136.34;4948118;29;20640;-68
2023/05/10 06:21:45;;;;;;;0.83;0.83;;;16.10;99.90;;;16.35;nan;100138.97;4953636;28;20620;-67
2023/05/10 06:24:12;;;;;;;0.63;0.63;;;16.10;99.90;;;16.11;nan;100146.75;4952082;28;20628;-68
2023/05/10 06:26:39;;;;;;;1.10;1.10;;;15.90;99.90;;;16.11;nan;100142.31;4950144;29;20644;-67
2023/05/10 06:29:06;;;;;;;1.40;1.40;;;15.90;99.90;;;16.14;nan;100141.97;4946994;28;20685;-69
2023/05/10 06:31:33;;;;;;;1.10;1.00;;;15.90;99.90;;;16.23;nan;100146.31;4951616;28;20621;-68
2023/05/10 06:34:00;;;;;;;1.70;1.40;;;16.00;99.90;;;16.33;nan;100154.91;4950100;28;20692;-67
2023/05/10 06:36:27;;;;;;;1.60;1.50;;;16.10;99.90;;;16.45;nan;100157.25;4952464;28;20624;-68
2023/05/10 06:38:54;;;;;;;2.00;1.80;;;16.10;99.90;;;16.56;nan;100155.19;4951016;28;20668;-67
2023/05/10 06:41:21;;;;;;;1.40;1.30;;;16.30;99.90;;;16.68;nan;100160.97;4948555;28;20629;-68
2023/05/10 06:43:50;;;;;;;1.03;1.00;;;16.40;99.90;;;16.76;nan;100153.13;4944229;28;20652;-69
2023/05/10 06:46:17;;;;;;;8.00;1.67;;;16.50;99.90;;;16.78;nan;100154.59;4941301;28;20652;-68
2023/05/10 06:48:44;;;;;;;1.37;1.27;;;16.50;99.90;;;16.81;nan;100154.28;4946352;28;21063;-68
2023/05/10 06:51:12;;;;;;;1.80;1.20;;;16.60;99.90;;;16.78;nan;100159.84;4945852;29;20648;-70
2023/05/10 06:53:39;;;;;;;1.30;1.20;;;16.50;99.90;;;16.75;nan;100157.56;4950672;28;20719;-69
2023/05/10 06:56:06;;;;;;;1.40;1.20;;;16.50;99.90;;;16.76;nan;100163.66;4950477;28;20640;-68
2023/05/10 06:58:33;;;;;;;1.20;1.20;;;16.50;99.90;;;16.82;nan;100165.66;4952008;28;20664;-68
2023/05/10 07:01:04;;;;;;;1.33;1.30;;;16.60;99.90;;;16.85;nan;100158.22;4951813;28;20640;-68
2023/05/10 07:03:32;;;;;;;1.23;1.23;;;16.60;99.90;;;16.92;nan;100156.59;4952653;29;20636;-68
2023/05/10 07:06:03;;;;;;;1.13;1.00;;;16.60;99.90;;;17.08;nan;100159.25;4948961;28;21301;-68
2023/05/10 07:08:31;;;;;;;0.70;0.70;;;16.80;99.90;;;17.27;nan;100157.31;4949226;29;20698;-68
2023/05/10 07:11:10;;;;;;;0.77;0.77;;;17.00;99.90;;;17.68;nan;100174.78;4950298;28;20636;-67
2023/05/10 07:13:38;;;;;;;0.70;0.70;;;17.30;99.90;;;18.36;nan;100165.38;4952464;28;20676;-68
2023/05/10 07:16:06;;;;;;;0.63;0.63;;;17.90;99.90;;;18.96;nan;100165.59;4951027;28;20636;-69
2023/05/10 07:18:33;;;;;;;1.33;0.97;;;18.60;99.90;;;19.41;nan;100177.19;4952174;28;21470;-68
2023/05/10 07:21:01;;;;;;;0.87;0.87;;;19.00;99.90;;;19.76;nan;100172.06;4947315;28;20640;-68
2023/05/10 07:23:28;;;;;;;0.80;0.80;;;19.40;99.90;;;20.10;nan;100169.72;4949419;28;20986;-70
2023/05/10 07:25:57;;;;;;;0.67;0.67;;;19.70;99.90;;;20.41;nan;100172.22;4949829;28;20702;-68
2023/05/10 07:28:24;;;;;;;0.87;0.87;;;20.10;99.90;;;20.79;nan;100175.53;4949190;28;21040;-68
2023/05/10 07:30:51;;;;;;;0.80;0.80;;;20.50;99.90;;;21.12;nan;100182.06;4949087;28;20631;-68
2023/05/10 07:33:18;;;;;;;0.77;0.77;;;20.80;99.90;;;21.19;nan;100180.28;4950641;28;21206;-68
2023/05/10 07:35:45;;;;;;;0.80;0.80;;;20.90;99.90;;;21.10;nan;100188.56;4958275;28;20632;-68
2023/05/10 07:38:12;;;;;;;0.80;0.80;;;20.90;99.90;;;21.11;nan;100192.84;4949208;28;20668;-68
2023/05/10 07:40:39;;;;;;;0.80;0.80;;;20.80;99.90;;;21.00;nan;100185.38;4951487;28;20621;-69
2023/05/10 07:43:06;;;;;;;0.93;0.93;;;20.80;99.90;;;20.86;nan;100181.75;4950406;28;20710;-69
2023/05/10 07:45:34;;;;;;;0.83;0.83;;;20.70;99.90;;;20.63;nan;100187.19;4951833;28;20627;-69
2023/05/10 07:48:01;;;;;;;0.70;0.70;;;20.50;99.90;;;20.27;nan;100182.84;4949130;28;20664;-69
2023/05/10 07:50:28;;;;;;;0.80;0.80;;;20.20;99.90;;;20.01;nan;100192.03;4950491;28;20643;-68
2023/05/10 07:52:56;;;;;;;0.80;0.80;;;19.90;99.90;;;19.87;nan;100194.63;4947097;28;20640;-68
2023/05/10 07:55:23;;;;;;;0.63;0.63;;;19.70;99.90;;;19.76;nan;100195.91;4946611;29;20680;-67
2023/05/10 07:57:50;;;;;;;0.80;0.80;;;19.60;99.90;;;19.59;nan;100196.25;4959948;28;21283;-70
2023/05/10 08:00:19;;;;;;;0.70;0.70;;;19.40;99.90;;;19.34;nan;100187.66;4946239;29;20624;-68
2023/05/10 08:02:47;;;;;;;0.90;0.90;;;19.10;99.90;;;19.13;nan;100190.94;4949004;28;20686;-68
2023/05/10 08:05:14;;;;;;;0.60;0.60;;;18.90;99.90;;;18.98;nan;100191.84;4948776;28;20623;-68
2023/05/10 08:07:42;;;;;;;0.80;0.80;;;18.80;99.90;;;18.98;nan;100191.84;4948355;28;20734;-69
2023/05/10 08:10:10;;;;;;;0.77;0.77;;;18.70;99.90;;;19.19;nan;100192.88;4964856;28;21286;-68
2023/05/10 08:12:38;;;;;;;0.70;0.70;;;18.90;99.90;;;19.62;nan;100191.41;4951028;28;20631;-68
2023/05/10 08:15:06;;;;;;;0.70;0.70;;;19.30;99.90;;;19.92;nan;100195.75;4949675;28;21041;-68
2023/05/10 08:17:33;;;;;;;0.60;0.60;;;19.60;99.90;;;19.99;nan;100196.69;4949507;29;20676;-69
2023/05/10 08:20:02;;;;;;;0.80;0.80;;;19.70;99.90;;;20.23;nan;100198.25;4943468;28;20671;-70
2023/05/10 08:22:29;;;;;;;0.60;0.60;;;19.90;99.90;;;20.47;nan;100189.22;4949645;28;20628;-70
2023/05/10 08:24:56;;;;;;;0.60;0.60;;;20.20;99.90;;;20.78;nan;100203.06;4950068;28;20644;-68
2023/05/10 08:27:23;;;;;;;0.70;0.70;;;20.40;99.90;;;21.12;nan;100203.28;4950290;28;20667;-67
2023/05/10 08:29:50;;;;;;;1.37;0.83;;;20.80;99.90;;;21.43;nan;100203.78;4949979;28;20648;-67
2023/05/10 08:32:17;;;;;;;0.70;0.70;;;21.10;99.90;;;21.64;nan;100198.47;4953126;28;20624;-66
2023/05/10 08:34:44;;;;;;;0.67;0.67;;;21.40;99.90;;;21.58;nan;100195.75;4950521;29;20672;-67
2023/05/10 08:37:12;;;;;;;0.90;0.90;;;21.40;99.90;;;21.44;nan;100207.28;4951776;28;20608;-69
2023/05/10 08:39:40;;;;;;;0.83;0.83;;;21.20;99.90;;;21.08;nan;100202.03;4952882;28;20624;-66
2023/05/10 08:42:09;;;;;;;0.70;0.70;;;20.90;99.90;;;20.76;nan;100215.69;4951475;28;21593;-68
2023/05/10 08:44:36;;;;;;;0.70;0.70;;;20.60;99.90;;;20.48;nan;100204.13;4951813;29;20596;-67
2023/05/10 08:47:07;;;;;;;1.27;0.80;;;20.30;99.90;;;20.19;nan;100212.03;4950094;28;21554;-67
2023/05/10 08:49:34;;;;;;;8.83;5.63;;;20.00;99.90;;;19.79;nan;100214.06;4952836;28;20636;-67
2023/05/10 08:52:07;;;;;;;3.70;2.90;;;19.60;99.90;;;19.34;nan;100220.22;4951919;29;20640;-67
2023/05/10 08:54:34;;;;;;;2.63;2.10;;;19.20;99.90;;;19.02;nan;100219.56;4948620;29;21301;-67
2023/05/10 08:57:01;;;;;;;0.90;0.90;;;18.90;99.90;;;18.81;nan;100222.84;4952061;28;20652;-69
2023/05/10 08:59:28;;;;;;;0.80;0.70;;;18.60;99.90;;;18.72;nan;100217.78;4948568;28;20643;-70
2023/05/10 09:01:59;;;;;;;0.70;0.70;;;18.50;99.90;;;18.63;nan;100214.34;4951570;28;20639;-67
2023/05/10 09:04:27;;;;;;;0.90;0.90;;;18.40;99.90;;;18.58;nan;100219.31;4949143;29;20702;-68
2023/05/10 09:06:55;;;;;;;0.70;0.70;;;18.30;99.90;;;18.61;nan;100226.06;4949642;28;20626;-68
2023/05/10 09:09:23;;;;;;;1.40;1.30;;;18.30;99.90;;;18.65;nan;100232.66;4944361;28;20706;-68
2023/05/10 09:11:51;;;;;;;0.90;0.90;;;18.40;99.90;;;18.76;nan;100234.94;4953297;28;20636;-68
2023/05/10 09:14:19;;;;;;;0.80;0.80;;;18.40;99.90;;;18.91;nan;100235.84;4951149;28;21084;-68
2023/05/10 09:16:47;;;;;;;1.03;1.03;;;18.60;99.90;;;19.07;nan;100235.75;4954413;28;20631;-68
2023/05/10 09:19:15;;;;;;;2.30;1.00;;;18.70;99.90;;;19.17;nan;100239.00;4944429;28;21088;-67
2023/05/10 09:21:44;;;;;;;0.90;0.90;;;18.90;99.90;;;19.28;nan;100238.59;4950944;28;20628;-68
2023/05/10 09:24:12;;;;;;;0.87;0.87;;;18.90;99.90;;;19.36;nan;100235.91;4953880;28;20620;-67
2023/05/10 09:26:49;;;;;;;0.97;0.97;;;19.10;99.90;;;19.41;nan;100245.97;4952845;28;20634;-69
2023/05/10 09:29:16;;;;;;;0.90;0.90;;;19.10;99.90;;;19.43;nan;100247.44;4952841;28;20651;-66
2023/05/10 09:31:51;;;;;;;0.80;0.80;;;19.10;99.90;;;19.39;nan;100246.16;4952443;28;20631;-68
2023/05/10 09:34:20;;;;;;;1.00;1.00;;;19.10;99.90;;;19.43;nan;100246.63;4952461;29;21239;-68
2023/05/10 09:36:56;;;;;;;0.90;0.90;;;19.10;99.90;;;19.48;nan;100246.94;4951584;29;20661;-69
2023/05/10 09:39:33;;;;;;;0.93;0.90;;;19.20;99.90;;;19.90;nan;100248.06;4953094;28;20635;-70
2023/05/10 09:42:09;;;;;;;1.20;1.20;;;19.50;99.90;;;20.17;nan;100257.22;4951299;28;20648;-69
2023/05/10 09:44:37;;;;;;;1.23;1.13;;;19.80;99.90;;;20.27;nan;100255.19;4950087;28;20624;-69
2023/05/10 09:47:05;;;;;;;0.80;0.80;;;19.90;99.90;;;20.26;nan;100252.72;4950961;28;20699;-68
2023/05/10 09:49:33;;;;;;;0.80;0.80;;;19.90;99.90;;;20.21;nan;100255.09;4951779;28;20667;-69
2023/05/10 09:52:06;;;;;;;1.23;1.10;;;19.90;99.90;;;20.00;nan;100251.28;4951252;28;21219;-70
2023/05/10 09:54:34;;;;;;;0.53;0.53;;;19.70;99.90;;;19.81;nan;100254.44;4953397;28;20659;-70
2023/05/10 09:57:02;;;;;;;0.67;0.67;;;19.50;99.90;;;19.63;nan;100264.53;4950657;29;20648;-69
2023/05/10 09:59:29;;;;;;;0.70;0.70;;;19.40;99.90;;;19.49;nan;100264.44;4951101;28;20644;-68
2023/05/10 10:01:59;;;;;;;0.80;0.80;;;19.20;99.90;;;19.31;nan;100265.50;4951820;29;21137;-69
2023/05/10 10:04:27;;;;;;;1.00;1.00;;;19.10;99.90;;;19.09;nan;100276.06;4947904;29;21021;-68
2023/05/10 10:07:03;;;;;;;2.10;1.10;;;18.90;99.90;;;18.92;nan;100277.97;4948093;29;20646;-68
2023/05/10 10:09:31;;;;;;;0.60;0.60;;;18.70;99.90;;;18.78;nan;100275.22;4949061;28;20647;-68
2023/05/10 10:12:03;;;;;;;0.87;0.87;;;18.60;99.90;;;18.80;nan;100278.53;4949972;29;20631;-68
2023/05/10 10:14:30;;;;;;;1.30;1.20;;;18.50;99.90;;;18.88;nan;100275.84;4951084;28;20661;-68
2023/05/10 10:17:00;;;;;;;0.80;0.80;;;18.60;99.90;;;19.15;nan;100278.00;4951276;28;20636;-69
2023/05/10 10:19:35;;;;;;;1.00;1.00;;;18.80;99.90;;;19.43;nan;100268.63;4965356;28;20644;-68
2023/05/10 10:22:02;;;;;;;0.53;0.53;;;19.10;99.90;;;19.88;nan;100265.13;4951848;28;20670;-67
2023/05/10 10:24:29;;;;;;;0.60;0.60;;;19.50;99.90;;;20.29;nan;100263.78;4952300;28;20798;-67
2023/05/10 10:27:09;;;;;;;0.50;0.50;;;19.90;99.90;;;20.58;nan;100261.13;4950145;28;20648;-67
2023/05/10 10:29:53;;;;;;;0.60;0.60;;;20.20;99.90;;;20.97;nan;100260.00;4945039;29;20636;-67
2023/05/10 10:33:00;;;;;;;0.83;0.83;;;20.50;99.90;;;21.27;nan;100253.66;4951319;29;20624;-68
2023/05/10 10:35:32;;;;;;;0.60;0.60;;;20.80;99.90;;;21.58;nan;100252.31;4950755;29;21219;-68
2023/05/10 10:37:59;;;;;;;0.67;0.67;;;21.20;99.90;;;21.91;nan;100257.13;4949741;29;20664;-67